createdAt,value
2019-03-22T00:01:46.900Z,47.5
2019-03-22T00:06:52.273Z,47.5
2019-03-22T00:11:57.793Z,47.6
2019-03-22T00:17:02.952Z,47.7
2019-03-22T00:22:08.041Z,47.9
2019-03-22T00:27:19.281Z,48.1
2019-03-22T00:32:14.432Z,48
2019-03-22T00:37:19.681Z,48
2019-03-22T00:42:24.749Z,48.4
2019-03-22T00:47:31.358Z,49.1
2019-03-22T00:52:36.520Z,48.6
2019-03-22T00:57:41.886Z,49.4
2019-03-22T01:02:47.038Z,50
2019-03-22T01:07:52.324Z,50.1
2019-03-22T01:12:56.300Z,50.3
2019-03-22T01:18:01.951Z,50.2
2019-03-22T01:23:05.797Z,50.2
2019-03-22T01:28:11.155Z,50.5
2019-03-22T01:33:16.515Z,50.5
2019-03-22T01:38:21.793Z,50.7
2019-03-22T01:43:26.968Z,50.8
2019-03-22T01:48:32.445Z,51
2019-03-22T01:53:37.677Z,51.2
2019-03-22T01:58:43.477Z,51.4
2019-03-22T02:03:47.225Z,51.6
2019-03-22T02:08:53.452Z,51.9
2019-03-22T02:13:58.653Z,52
2019-03-22T02:19:04.011Z,52.1
2019-03-22T02:24:09.042Z,52.3
2019-03-22T02:29:14.361Z,52.6
2019-03-22T02:34:19.845Z,53.1
2019-03-22T02:39:24.553Z,53.1
2019-03-22T02:44:29.889Z,53.8
2019-03-22T02:49:35.073Z,52.9
2019-03-22T02:54:40.205Z,53
2019-03-22T02:59:45.270Z,53.2
2019-03-22T03:04:50.748Z,53.1
2019-03-22T03:09:56.269Z,53.4
2019-03-22T03:15:01.449Z,53.7
2019-03-22T03:20:06.968Z,53.6
2019-03-22T03:25:10.788Z,53.5
2019-03-22T03:30:16.346Z,53.6
2019-03-22T03:40:25.812Z,53.7
2019-03-22T03:45:31.026Z,54
2019-03-22T03:50:36.469Z,54.2
2019-03-22T03:55:41.736Z,55
2019-03-22T04:00:45.466Z,54.7
2019-03-22T04:05:50.603Z,54.7
2019-03-22T04:10:55.933Z,55
2019-03-22T04:16:03.861Z,55
2019-03-22T04:21:09.155Z,55.1
2019-03-22T04:26:14.523Z,55.4
2019-03-22T04:31:20.048Z,55.3
2019-03-22T04:36:25.702Z,55.8
2019-03-22T04:41:31.230Z,55.2
2019-03-22T04:46:36.425Z,55.4
2019-03-22T04:51:42.129Z,55.7
2019-03-22T04:56:47.614Z,55.8
2019-03-22T05:01:53.044Z,55.9
2019-03-22T05:06:58.011Z,55.8
2019-03-22T05:12:03.240Z,55.7
2019-03-22T05:17:08.455Z,55.3
2019-03-22T05:22:13.928Z,54.9
2019-03-22T05:27:19.212Z,54.9
2019-03-22T05:32:24.859Z,54.8
2019-03-22T05:37:30.202Z,54.1
2019-03-22T05:42:34.168Z,53.1
2019-03-22T05:47:39.372Z,52.7
2019-03-22T05:52:45.197Z,52.4
2019-03-22T05:57:50.568Z,51.3
2019-03-22T06:02:55.912Z,50.3
2019-03-22T06:08:01.152Z,50
2019-03-22T06:13:07.049Z,48.8
2019-03-22T06:18:12.219Z,47.1
2019-03-22T06:23:17.845Z,46.4
2019-03-22T06:28:21.536Z,45.6
2019-03-22T06:33:27.048Z,45.1
2019-03-22T06:38:30.850Z,44.8
2019-03-22T06:43:36.216Z,43.6
2019-03-22T06:48:39.880Z,43.5
2019-03-22T06:53:45.291Z,42.1
2019-03-22T06:58:50.488Z,41.1
2019-03-22T07:03:55.640Z,40.3
2019-03-22T07:09:00.541Z,39.5
2019-03-22T07:14:04.231Z,37.7
2019-03-22T07:19:09.194Z,37.1
2019-03-22T07:24:14.513Z,35.4
2019-03-22T07:29:19.843Z,34.7
2019-03-22T07:34:25.233Z,33.1
2019-03-22T07:39:30.804Z,29.3
2019-03-22T07:44:35.941Z,29.3
2019-03-22T07:49:39.583Z,27.4
2019-03-22T07:54:44.943Z,25.2
2019-03-22T07:59:50.334Z,23
2019-03-22T08:04:50.628Z,22.4
2019-03-22T08:09:55.944Z,20.3
2019-03-22T08:15:01.341Z,19
2019-03-22T08:20:06.634Z,18.2
2019-03-22T08:25:11.894Z,17.6
2019-03-22T08:30:15.385Z,16.7
2019-03-22T08:35:20.580Z,17.2
2019-03-22T08:40:26.029Z,17.7
2019-03-22T08:45:32.005Z,17.4
2019-03-22T08:50:37.350Z,17.4
2019-03-22T08:55:42.716Z,17.2
2019-03-22T09:01:00.133Z,16.9
2019-03-22T09:05:55.867Z,16.6
2019-03-22T09:11:01.116Z,16.6
2019-03-22T09:16:06.620Z,16.5
2019-03-22T09:21:11.649Z,16.9
2019-03-22T09:26:19.901Z,17.9
2019-03-22T09:31:23.956Z,17.9
2019-03-22T09:36:29.286Z,17.3
2019-03-22T09:41:34.937Z,17.9
2019-03-22T09:46:40.365Z,17.9
2019-03-22T09:51:45.691Z,17.6
2019-03-22T09:56:51.054Z,17.1
2019-03-22T10:01:56.365Z,16.8
2019-03-22T10:07:01.631Z,16.8
2019-03-22T10:12:07.049Z,16.7
2019-03-22T10:17:11.088Z,16.6
2019-03-22T10:22:16.282Z,15.7
2019-03-22T10:27:21.388Z,15.6
2019-03-22T10:32:26.674Z,16.2
2019-03-22T10:37:30.523Z,15.9
2019-03-22T10:42:36.055Z,15.5
2019-03-22T10:47:42.343Z,15.5
2019-03-22T10:52:48.960Z,16.2
2019-03-22T10:57:57.949Z,16.2
2019-03-22T11:03:03.374Z,16.1
2019-03-22T11:08:08.735Z,15.2
2019-03-22T11:13:13.944Z,16
2019-03-22T11:18:19.614Z,15.2
2019-03-22T11:23:24.784Z,15
2019-03-22T11:28:30.023Z,15.2
2019-03-22T11:33:33.692Z,14.4
2019-03-22T11:38:39.016Z,13.3
2019-03-22T11:43:44.584Z,12.9
2019-03-22T11:48:49.817Z,12.8
2019-03-22T11:53:55.136Z,13.1
2019-03-22T11:58:59.144Z,12.9
2019-03-22T12:04:04.251Z,12.9
2019-03-22T12:09:09.534Z,12.9
2019-03-22T12:14:15.200Z,12.8
2019-03-22T12:19:20.558Z,12.8
2019-03-22T12:24:25.920Z,12.9
2019-03-22T12:29:34.285Z,13.6
2019-03-22T12:34:39.715Z,12.9
2019-03-22T12:39:45.156Z,12.3
2019-03-22T12:44:50.760Z,12.2
2019-03-22T12:49:55.934Z,12.6
2019-03-22T12:55:01.167Z,12.5
2019-03-22T13:00:06.381Z,13.2
2019-03-22T13:05:11.358Z,13.3
2019-03-22T13:10:16.453Z,14.3
2019-03-22T13:15:21.414Z,15.9
2019-03-22T13:20:25.523Z,17.3
2019-03-22T13:25:30.528Z,18.4
2019-03-22T13:30:36.152Z,20.6
2019-03-22T13:35:41.822Z,21.9
2019-03-22T13:40:45.561Z,21.9
2019-03-22T13:45:51.110Z,22.8
2019-03-22T13:50:56.341Z,22.8
2019-03-22T13:56:02.746Z,24.2
2019-03-22T14:01:08.757Z,25.1
2019-03-22T14:06:14.382Z,24.9
2019-03-22T14:11:20.056Z,25.1
2019-03-22T14:16:25.263Z,25
2019-03-22T14:21:30.432Z,25.5
2019-03-22T14:26:35.558Z,26
2019-03-22T14:31:40.732Z,26.2
2019-03-22T14:36:46.734Z,26.7
2019-03-22T14:41:51.078Z,28.1
2019-03-22T14:46:56.354Z,28.1
2019-03-22T14:52:01.718Z,27.9
2019-03-22T14:57:06.772Z,27.9
2019-03-22T15:02:13.668Z,27.3
2019-03-22T15:07:22.720Z,28.3
2019-03-22T15:12:28.273Z,28.3
2019-03-22T15:17:33.448Z,28.5
2019-03-22T15:22:39.425Z,27.9
2019-03-22T15:27:44.924Z,27.9
2019-03-22T15:32:50.284Z,28.1
2019-03-22T15:37:55.810Z,28.2
2019-03-22T15:43:00.823Z,28.4
2019-03-22T15:48:06.229Z,28.7
2019-03-22T15:53:11.591Z,30
2019-03-22T15:58:16.804Z,29.1
2019-03-22T16:03:23.228Z,29.5
2019-03-22T16:08:28.600Z,29.5
2019-03-22T16:13:36.465Z,29.8
2019-03-22T16:18:42.187Z,30
2019-03-22T16:23:45.846Z,30.2
2019-03-22T16:28:50.903Z,30.6
2019-03-22T16:33:58.285Z,31.7
2019-03-22T16:39:03.483Z,31.8
2019-03-22T16:44:08.697Z,31.9
2019-03-22T16:49:14.359Z,32.4
2019-03-22T16:54:19.608Z,32.4
2019-03-22T16:59:24.719Z,32.6
2019-03-22T17:04:28.361Z,33
2019-03-22T17:09:33.541Z,33.1
2019-03-22T17:14:39.755Z,33.3
2019-03-22T17:19:46.748Z,33.9
2019-03-22T17:24:51.949Z,34
2019-03-22T17:29:56.999Z,34.2
2019-03-22T17:35:02.387Z,34.5
2019-03-22T17:40:07.581Z,35
2019-03-22T17:45:13.183Z,35.2
2019-03-22T17:50:18.895Z,35.4
2019-03-22T17:55:24.140Z,35.4
2019-03-22T18:00:29.450Z,35.7
2019-03-22T18:05:35.298Z,35.9
2019-03-22T18:10:40.521Z,35.9
2019-03-22T18:15:45.832Z,36.2
2019-03-22T18:20:51.086Z,37.1
2019-03-22T18:25:56.605Z,37.5
2019-03-22T18:31:01.730Z,38.5
2019-03-22T18:36:07.029Z,39.6
2019-03-22T18:41:12.285Z,39.7
2019-03-22T18:46:17.486Z,40
2019-03-22T18:51:17.542Z,40.4
2019-03-22T18:56:22.493Z,40.2
2019-03-22T19:01:26.142Z,40.5
2019-03-22T19:06:31.260Z,41.2
2019-03-22T19:11:36.577Z,41.7
2019-03-22T19:16:41.976Z,42.4
2019-03-22T19:21:46.962Z,43.1
2019-03-22T19:26:52.507Z,43.1
2019-03-22T19:31:57.453Z,43.5
2019-03-22T19:37:02.750Z,43.6
2019-03-22T19:42:07.987Z,43.8
2019-03-22T19:47:13.254Z,44.3
2019-03-22T19:52:21.650Z,44.7
2019-03-22T19:57:26.817Z,44.6
2019-03-22T20:02:32.130Z,44.7
2019-03-22T20:07:37.639Z,45
2019-03-22T20:12:42.913Z,44.9
2019-03-22T20:17:48.121Z,45.1
2019-03-22T20:22:53.626Z,45.5
2019-03-22T20:27:57.505Z,45.5
2019-03-22T20:33:02.988Z,45.5
2019-03-22T20:38:08.505Z,45.5
2019-03-22T20:43:13.534Z,45.8
2019-03-22T20:48:18.693Z,46
2019-03-22T20:53:24.525Z,47.1
2019-03-22T20:58:28.666Z,46.5
2019-03-22T21:03:35.231Z,46.9
2019-03-22T21:08:40.481Z,46.8
2019-03-22T21:13:45.560Z,47
2019-03-22T21:18:51.540Z,47.3
2019-03-22T21:23:56.998Z,47.5
2019-03-22T21:29:00.813Z,47.7
2019-03-22T21:34:06.967Z,48.4
2019-03-22T21:39:11.204Z,48.4
2019-03-22T21:44:16.486Z,48.6
2019-03-22T21:49:21.853Z,49
2019-03-22T21:54:27.116Z,49.9
2019-03-22T21:59:32.924Z,49.7
2019-03-22T22:04:38.691Z,49.9
2019-03-22T22:09:44.187Z,49.9
2019-03-22T22:14:49.730Z,50.1
2019-03-22T22:19:54.992Z,50.4
2019-03-22T22:25:00.324Z,50.7
2019-03-22T22:30:05.826Z,51
2019-03-22T22:35:09.656Z,51.4
2019-03-22T22:40:15.011Z,52.5
2019-03-22T22:45:18.965Z,52.3
2019-03-22T22:50:22.858Z,53.8
2019-03-22T22:55:28.026Z,55.2
2019-03-22T23:00:33.320Z,56.1
2019-03-22T23:05:39.050Z,57
2019-03-22T23:10:44.337Z,57.6
2019-03-22T23:15:50.009Z,57.2
2019-03-22T23:20:55.304Z,57.2
2019-03-22T23:26:00.524Z,57.1
2019-03-22T23:31:05.813Z,58
2019-03-22T23:36:20.752Z,60
2019-03-22T23:41:16.078Z,59.9
2019-03-22T23:46:21.010Z,60.8
2019-03-22T23:51:24.836Z,61.5
2019-03-22T23:56:30.012Z,62.8
